Roans Prairie, Texas
Current Conditions -  °F | °C
As of 11:53 PM on Friday 28 Nov 2014 (Local Time) from KUTS Reporting Station
Clear Clear  
Wind Chill: 14°   Ceiling: Unl
Heat Index: 14°   Visibility: 10mi
Dew Point: 13°   Wind: 8mph
Humidity: 90%   Direction: 190°S
Pressure: 30.11"   Gusts: NA
Location:  30.58°N, 95.94°W
Report Text: KUTS 290553Z AUTO 19007KT 10SM CLR 14/13 A3011 RMK AO2 SLP192 T01440128 10178 20144 402110039 58007
Loading
Personal Weather Stations






























Interactive Weather Map New forecast layout! Learn more

10-Day Weather Forecast

Advertisements
Track Severe Weather on mobile